sensor_id;sensor_type;location;lat;lon;timestamp;pressure;altitude;pressure_sealevel;temperature
11424;BMP180;5768;51.476;7.210;2023-04-24T00:02:34;98755.00;;;14.70
11424;BMP180;5768;51.476;7.210;2023-04-24T00:07:38;98748.00;;;14.50
11424;BMP180;5768;51.476;7.210;2023-04-24T00:12:42;98749.00;;;14.50
11424;BMP180;5768;51.476;7.210;2023-04-24T00:17:44;98754.00;;;14.40
11424;BMP180;5768;51.476;7.210;2023-04-24T00:22:47;98756.00;;;14.10
11424;BMP180;5768;51.476;7.210;2023-04-24T00:27:51;98744.00;;;13.90
11424;BMP180;5768;51.476;7.210;2023-04-24T00:32:53;98754.00;;;13.80
11424;BMP180;5768;51.476;7.210;2023-04-24T00:37:55;98740.00;;;13.70
11424;BMP180;5768;51.476;7.210;2023-04-24T00:42:59;98764.00;;;13.60
11424;BMP180;5768;51.476;7.210;2023-04-24T00:48:02;98758.00;;;13.70
11424;BMP180;5768;51.476;7.210;2023-04-24T00:53:04;98738.00;;;13.60
11424;BMP180;5768;51.476;7.210;2023-04-24T00:58:08;98744.00;;;13.40
11424;BMP180;5768;51.476;7.210;2023-04-24T01:03:10;98743.00;;;13.30
11424;BMP180;5768;51.476;7.210;2023-04-24T01:08:14;98752.00;;;13.20
11424;BMP180;5768;51.476;7.210;2023-04-24T01:13:18;98745.00;;;13.10
11424;BMP180;5768;51.476;7.210;2023-04-24T01:18:21;98752.00;;;13.10
11424;BMP180;5768;51.476;7.210;2023-04-24T01:23:25;98754.00;;;13.20
11424;BMP180;5768;51.476;7.210;2023-04-24T01:28:28;98746.00;;;13.30
11424;BMP180;5768;51.476;7.210;2023-04-24T01:33:31;98757.00;;;13.50
11424;BMP180;5768;51.476;7.210;2023-04-24T01:38:35;98747.00;;;13.50
11424;BMP180;5768;51.476;7.210;2023-04-24T01:43:37;98756.00;;;13.40
11424;BMP180;5768;51.476;7.210;2023-04-24T01:48:41;98753.00;;;13.20
11424;BMP180;5768;51.476;7.210;2023-04-24T01:53:45;98748.00;;;13.00
11424;BMP180;5768;51.476;7.210;2023-04-24T01:58:48;98758.00;;;12.80
11424;BMP180;5768;51.476;7.210;2023-04-24T02:03:51;98763.00;;;12.70
11424;BMP180;5768;51.476;7.210;2023-04-24T02:08:55;98757.00;;;12.60
11424;BMP180;5768;51.476;7.210;2023-04-24T02:13:58;98765.00;;;12.50
11424;BMP180;5768;51.476;7.210;2023-04-24T02:19:00;98761.00;;;12.40
11424;BMP180;5768;51.476;7.210;2023-04-24T02:24:03;98776.00;;;12.30
11424;BMP180;5768;51.476;7.210;2023-04-24T02:29:06;98751.00;;;12.20
11424;BMP180;5768;51.476;7.210;2023-04-24T02:34:09;98762.00;;;12.30
11424;BMP180;5768;51.476;7.210;2023-04-24T02:39:13;98771.00;;;12.30
11424;BMP180;5768;51.476;7.210;2023-04-24T02:44:17;98771.00;;;12.30
11424;BMP180;5768;51.476;7.210;2023-04-24T02:49:19;98776.00;;;12.20
11424;BMP180;5768;51.476;7.210;2023-04-24T02:54:23;98775.00;;;12.20
11424;BMP180;5768;51.476;7.210;2023-04-24T02:59:25;98775.00;;;12.30
11424;BMP180;5768;51.476;7.210;2023-04-24T03:04:29;98782.00;;;12.50
11424;BMP180;5768;51.476;7.210;2023-04-24T03:09:34;98775.00;;;12.60
11424;BMP180;5768;51.476;7.210;2023-04-24T03:14:37;98774.00;;;12.70
11424;BMP180;5768;51.476;7.210;2023-04-24T03:19:39;98799.00;;;12.80
11424;BMP180;5768;51.476;7.210;2023-04-24T03:24:43;98783.00;;;12.90
11424;BMP180;5768;51.476;7.210;2023-04-24T03:29:45;98809.00;;;12.90
11424;BMP180;5768;51.476;7.210;2023-04-24T03:34:47;98798.00;;;12.90
11424;BMP180;5768;51.476;7.210;2023-04-24T03:39:51;98785.00;;;12.80
11424;BMP180;5768;51.476;7.210;2023-04-24T03:44:53;98798.00;;;12.90
11424;BMP180;5768;51.476;7.210;2023-04-24T03:49:55;98799.00;;;12.90
11424;BMP180;5768;51.476;7.210;2023-04-24T03:54:59;98796.00;;;12.90
11424;BMP180;5768;51.476;7.210;2023-04-24T04:00:04;98798.00;;;12.90
11424;BMP180;5768;51.476;7.210;2023-04-24T04:05:08;98802.00;;;12.90
11424;BMP180;5768;51.476;7.210;2023-04-24T04:10:12;98813.00;;;13.00
11424;BMP180;5768;51.476;7.210;2023-04-24T04:15:15;98815.00;;;13.00
11424;BMP180;5768;51.476;7.210;2023-04-24T04:20:17;98821.00;;;12.90
11424;BMP180;5768;51.476;7.210;2023-04-24T04:25:21;98808.00;;;12.90
11424;BMP180;5768;51.476;7.210;2023-04-24T04:30:24;98812.00;;;13.00
11424;BMP180;5768;51.476;7.210;2023-04-24T04:35:26;98835.00;;;13.00
11424;BMP180;5768;51.476;7.210;2023-04-24T04:40:30;98826.00;;;13.00
11424;BMP180;5768;51.476;7.210;2023-04-24T04:45:32;98818.00;;;13.10
11424;BMP180;5768;51.476;7.210;2023-04-24T04:50:35;98826.00;;;12.90
11424;BMP180;5768;51.476;7.210;2023-04-24T04:55:39;98821.00;;;12.90
11424;BMP180;5768;51.476;7.210;2023-04-24T05:00:41;98826.00;;;13.00
11424;BMP180;5768;51.476;7.210;2023-04-24T05:05:43;98816.00;;;13.10
11424;BMP180;5768;51.476;7.210;2023-04-24T05:10:47;98821.00;;;13.20
11424;BMP180;5768;51.476;7.210;2023-04-24T05:15:49;98820.00;;;13.20
11424;BMP180;5768;51.476;7.210;2023-04-24T05:20:51;98823.00;;;13.20
11424;BMP180;5768;51.476;7.210;2023-04-24T05:25:55;98827.00;;;13.10
11424;BMP180;5768;51.476;7.210;2023-04-24T05:30:57;98823.00;;;13.00
11424;BMP180;5768;51.476;7.210;2023-04-24T05:36:00;98829.00;;;13.10
11424;BMP180;5768;51.476;7.210;2023-04-24T05:41:04;98847.00;;;12.80
11424;BMP180;5768;51.476;7.210;2023-04-24T05:46:06;98859.00;;;12.60
11424;BMP180;5768;51.476;7.210;2023-04-24T05:51:09;98842.00;;;12.50
11424;BMP180;5768;51.476;7.210;2023-04-24T05:56:13;98850.00;;;12.40
11424;BMP180;5768;51.476;7.210;2023-04-24T06:01:16;98836.00;;;12.70
11424;BMP180;5768;51.476;7.210;2023-04-24T06:06:19;98830.00;;;12.70
11424;BMP180;5768;51.476;7.210;2023-04-24T06:11:23;98837.00;;;12.80
11424;BMP180;5768;51.476;7.210;2023-04-24T06:16:25;98848.00;;;12.70
11424;BMP180;5768;51.476;7.210;2023-04-24T06:21:27;98840.00;;;12.90
11424;BMP180;5768;51.476;7.210;2023-04-24T06:26:31;98851.00;;;12.70
11424;BMP180;5768;51.476;7.210;2023-04-24T06:31:33;98850.00;;;12.60
11424;BMP180;5768;51.476;7.210;2023-04-24T06:36:38;98845.00;;;12.70
11424;BMP180;5768;51.476;7.210;2023-04-24T06:41:41;98835.00;;;12.80
11424;BMP180;5768;51.476;7.210;2023-04-24T06:46:43;98854.00;;;12.90
11424;BMP180;5768;51.476;7.210;2023-04-24T06:51:46;98850.00;;;13.10
11424;BMP180;5768;51.476;7.210;2023-04-24T06:56:49;98838.00;;;13.40
11424;BMP180;5768;51.476;7.210;2023-04-24T07:01:52;98858.00;;;13.30
11424;BMP180;5768;51.476;7.210;2023-04-24T07:06:55;98844.00;;;13.00
11424;BMP180;5768;51.476;7.210;2023-04-24T07:12:00;98839.00;;;13.10
11424;BMP180;5768;51.476;7.210;2023-04-24T07:17:02;98849.00;;;13.50
11424;BMP180;5768;51.476;7.210;2023-04-24T07:22:05;98898.00;;;13.30
11424;BMP180;5768;51.476;7.210;2023-04-24T07:27:09;98853.00;;;13.30
11424;BMP180;5768;51.476;7.210;2023-04-24T07:32:11;98836.00;;;13.40
11424;BMP180;5768;51.476;7.210;2023-04-24T07:37:13;98845.00;;;13.30
11424;BMP180;5768;51.476;7.210;2023-04-24T07:42:17;98839.00;;;13.40
11424;BMP180;5768;51.476;7.210;2023-04-24T07:47:19;98860.00;;;13.60
11424;BMP180;5768;51.476;7.210;2023-04-24T07:52:21;98868.00;;;13.60
11424;BMP180;5768;51.476;7.210;2023-04-24T07:57:25;98872.00;;;13.50
11424;BMP180;5768;51.476;7.210;2023-04-24T08:02:27;98874.00;;;13.40
11424;BMP180;5768;51.476;7.210;2023-04-24T08:07:30;98897.00;;;13.20
11424;BMP180;5768;51.476;7.210;2023-04-24T08:12:33;98881.00;;;12.80
11424;BMP180;5768;51.476;7.210;2023-04-24T08:17:35;98900.00;;;12.50
11424;BMP180;5768;51.476;7.210;2023-04-24T08:22:38;98885.00;;;12.10
11424;BMP180;5768;51.476;7.210;2023-04-24T08:27:41;98897.00;;;12.10
11424;BMP180;5768;51.476;7.210;2023-04-24T08:32:44;98909.00;;;12.10
11424;BMP180;5768;51.476;7.210;2023-04-24T08:37:46;98907.00;;;12.10
11424;BMP180;5768;51.476;7.210;2023-04-24T08:42:53;98918.00;;;11.90
11424;BMP180;5768;51.476;7.210;2023-04-24T08:47:58;98903.00;;;11.50
11424;BMP180;5768;51.476;7.210;2023-04-24T08:53:01;98903.00;;;11.40
11424;BMP180;5768;51.476;7.210;2023-04-24T08:58:05;98932.00;;;11.40
11424;BMP180;5768;51.476;7.210;2023-04-24T09:03:07;98911.00;;;11.30
11424;BMP180;5768;51.476;7.210;2023-04-24T09:08:10;98953.00;;;11.30
11424;BMP180;5768;51.476;7.210;2023-04-24T09:13:15;98954.00;;;11.30
11424;BMP180;5768;51.476;7.210;2023-04-24T09:18:18;98951.00;;;11.40
11424;BMP180;5768;51.476;7.210;2023-04-24T09:23:20;98967.00;;;11.60
11424;BMP180;5768;51.476;7.210;2023-04-24T09:28:30;98986.00;;;11.70
11424;BMP180;5768;51.476;7.210;2023-04-24T09:33:32;98998.00;;;11.70
11424;BMP180;5768;51.476;7.210;2023-04-24T09:38:37;99004.00;;;11.80
11424;BMP180;5768;51.476;7.210;2023-04-24T09:43:41;99018.00;;;11.80
11424;BMP180;5768;51.476;7.210;2023-04-24T09:48:43;99026.00;;;11.90
11424;BMP180;5768;51.476;7.210;2023-04-24T09:53:46;99065.00;;;11.90
11424;BMP180;5768;51.476;7.210;2023-04-24T09:58:50;99086.00;;;11.70
11424;BMP180;5768;51.476;7.210;2023-04-24T10:03:52;99091.00;;;11.30
11424;BMP180;5768;51.476;7.210;2023-04-24T10:08:56;99109.00;;;11.00
11424;BMP180;5768;51.476;7.210;2023-04-24T10:14:00;99139.00;;;10.90
11424;BMP180;5768;51.476;7.210;2023-04-24T10:19:03;99151.00;;;10.70
11424;BMP180;5768;51.476;7.210;2023-04-24T10:24:06;99161.00;;;10.70
11424;BMP180;5768;51.476;7.210;2023-04-24T10:29:13;99172.00;;;10.80
11424;BMP180;5768;51.476;7.210;2023-04-24T10:34:19;99179.00;;;10.90
11424;BMP180;5768;51.476;7.210;2023-04-24T10:39:22;99191.00;;;11.30
11424;BMP180;5768;51.476;7.210;2023-04-24T10:44:36;99188.00;;;11.30
11424;BMP180;5768;51.476;7.210;2023-04-24T10:49:39;99207.00;;;11.30
11424;BMP180;5768;51.476;7.210;2023-04-24T10:54:44;99217.00;;;11.40
11424;BMP180;5768;51.476;7.210;2023-04-24T10:59:51;99227.00;;;11.50
11424;BMP180;5768;51.476;7.210;2023-04-24T11:04:54;99228.00;;;11.70
11424;BMP180;5768;51.476;7.210;2023-04-24T11:09:59;99233.00;;;11.50
11424;BMP180;5768;51.476;7.210;2023-04-24T11:15:10;99252.00;;;11.40
11424;BMP180;5768;51.476;7.210;2023-04-24T11:20:18;99254.00;;;11.60
11424;BMP180;5768;51.476;7.210;2023-04-24T11:25:21;99261.00;;;11.70
11424;BMP180;5768;51.476;7.210;2023-04-24T11:30:30;99270.00;;;11.90
11424;BMP180;5768;51.476;7.210;2023-04-24T11:35:39;99279.00;;;12.20
11424;BMP180;5768;51.476;7.210;2023-04-24T11:40:42;99277.00;;;12.90
11424;BMP180;5768;51.476;7.210;2023-04-24T11:45:49;99282.00;;;13.40
11424;BMP180;5768;51.476;7.210;2023-04-24T11:50:51;99284.00;;;13.20
11424;BMP180;5768;51.476;7.210;2023-04-24T11:55:54;99291.00;;;12.90
11424;BMP180;5768;51.476;7.210;2023-04-24T12:00:58;99308.00;;;12.60
11424;BMP180;5768;51.476;7.210;2023-04-24T12:06:05;99313.00;;;12.40
11424;BMP180;5768;51.476;7.210;2023-04-24T12:11:08;99324.00;;;12.70
11424;BMP180;5768;51.476;7.210;2023-04-24T12:16:12;99326.00;;;13.60
11424;BMP180;5768;51.476;7.210;2023-04-24T12:21:19;99329.00;;;14.50
11424;BMP180;5768;51.476;7.210;2023-04-24T12:26:21;99359.00;;;15.60
11424;BMP180;5768;51.476;7.210;2023-04-24T12:31:27;99362.00;;;15.30
11424;BMP180;5768;51.476;7.210;2023-04-24T12:36:31;99351.00;;;15.00
11424;BMP180;5768;51.476;7.210;2023-04-24T12:41:48;99367.00;;;14.70
11424;BMP180;5768;51.476;7.210;2023-04-24T12:46:52;99351.00;;;14.30
11424;BMP180;5768;51.476;7.210;2023-04-24T12:51:54;99372.00;;;13.80
11424;BMP180;5768;51.476;7.210;2023-04-24T12:56:56;99397.00;;;13.50
11424;BMP180;5768;51.476;7.210;2023-04-24T13:02:00;99383.00;;;13.70
11424;BMP180;5768;51.476;7.210;2023-04-24T13:07:02;99391.00;;;14.00
11424;BMP180;5768;51.476;7.210;2023-04-24T13:12:04;99398.00;;;14.60
11424;BMP180;5768;51.476;7.210;2023-04-24T13:17:09;99403.00;;;15.20
11424;BMP180;5768;51.476;7.210;2023-04-24T13:22:13;99398.00;;;15.00
11424;BMP180;5768;51.476;7.210;2023-04-24T13:27:15;99399.00;;;15.10
11424;BMP180;5768;51.476;7.210;2023-04-24T13:32:19;99405.00;;;14.80
11424;BMP180;5768;51.476;7.210;2023-04-24T13:37:21;99410.00;;;14.50
11424;BMP180;5768;51.476;7.210;2023-04-24T13:42:24;99408.00;;;14.50
11424;BMP180;5768;51.476;7.210;2023-04-24T13:47:27;99428.00;;;14.60
11424;BMP180;5768;51.476;7.210;2023-04-24T13:52:30;99430.00;;;14.50
11424;BMP180;5768;51.476;7.210;2023-04-24T13:57:32;99418.00;;;14.30
11424;BMP180;5768;51.476;7.210;2023-04-24T14:02:35;99429.00;;;14.30
11424;BMP180;5768;51.476;7.210;2023-04-24T14:07:39;99424.00;;;14.50
11424;BMP180;5768;51.476;7.210;2023-04-24T14:12:41;99419.00;;;15.10
11424;BMP180;5768;51.476;7.210;2023-04-24T14:17:45;99430.00;;;15.80
11424;BMP180;5768;51.476;7.210;2023-04-24T14:22:48;99426.00;;;15.90
11424;BMP180;5768;51.476;7.210;2023-04-24T14:27:50;99426.00;;;15.80
11424;BMP180;5768;51.476;7.210;2023-04-24T14:32:54;99431.00;;;15.60
11424;BMP180;5768;51.476;7.210;2023-04-24T14:37:56;99433.00;;;15.10
11424;BMP180;5768;51.476;7.210;2023-04-24T14:42:58;99431.00;;;14.60
11424;BMP180;5768;51.476;7.210;2023-04-24T14:48:02;99438.00;;;14.30
11424;BMP180;5768;51.476;7.210;2023-04-24T14:53:04;99428.00;;;14.20
11424;BMP180;5768;51.476;7.210;2023-04-24T14:58:06;99446.00;;;14.00
11424;BMP180;5768;51.476;7.210;2023-04-24T15:03:10;99445.00;;;13.80
11424;BMP180;5768;51.476;7.210;2023-04-24T15:08:12;99470.00;;;13.60
11424;BMP180;5768;51.476;7.210;2023-04-24T15:13:15;99468.00;;;13.50
11424;BMP180;5768;51.476;7.210;2023-04-24T15:18:18;99486.00;;;13.60
11424;BMP180;5768;51.476;7.210;2023-04-24T15:23:21;99480.00;;;15.20
11424;BMP180;5768;51.476;7.210;2023-04-24T15:28:24;99485.00;;;15.30
11424;BMP180;5768;51.476;7.210;2023-04-24T15:33:28;99478.00;;;15.80
11424;BMP180;5768;51.476;7.210;2023-04-24T15:38:31;99488.00;;;17.20
11424;BMP180;5768;51.476;7.210;2023-04-24T15:43:33;99489.00;;;20.10
11424;BMP180;5768;51.476;7.210;2023-04-24T15:48:36;99504.00;;;21.90
11424;BMP180;5768;51.476;7.210;2023-04-24T15:53:42;99495.00;;;20.00
11424;BMP180;5768;51.476;7.210;2023-04-24T15:58:44;99501.00;;;21.60
11424;BMP180;5768;51.476;7.210;2023-04-24T16:03:48;99513.00;;;21.80
11424;BMP180;5768;51.476;7.210;2023-04-24T16:08:50;99517.00;;;21.40
11424;BMP180;5768;51.476;7.210;2023-04-24T16:13:52;99510.00;;;19.20
11424;BMP180;5768;51.476;7.210;2023-04-24T16:18:56;99498.00;;;19.60
11424;BMP180;5768;51.476;7.210;2023-04-24T16:23:58;99488.00;;;18.80
11424;BMP180;5768;51.476;7.210;2023-04-24T16:29:01;99503.00;;;21.70
11424;BMP180;5768;51.476;7.210;2023-04-24T16:34:04;99520.00;;;23.40
11424;BMP180;5768;51.476;7.210;2023-04-24T16:39:06;99528.00;;;22.90
11424;BMP180;5768;51.476;7.210;2023-04-24T16:44:09;99512.00;;;20.80
11424;BMP180;5768;51.476;7.210;2023-04-24T16:49:15;99525.00;;;18.20
11424;BMP180;5768;51.476;7.210;2023-04-24T16:54:17;99519.00;;;16.70
11424;BMP180;5768;51.476;7.210;2023-04-24T16:59:20;99509.00;;;15.90
11424;BMP180;5768;51.476;7.210;2023-04-24T17:04:24;99521.00;;;15.50
11424;BMP180;5768;51.476;7.210;2023-04-24T17:09:26;99515.00;;;15.20
11424;BMP180;5768;51.476;7.210;2023-04-24T17:14:29;99522.00;;;14.70
11424;BMP180;5768;51.476;7.210;2023-04-24T17:19:33;99542.00;;;14.20
11424;BMP180;5768;51.476;7.210;2023-04-24T17:24:35;99538.00;;;13.20
11424;BMP180;5768;51.476;7.210;2023-04-24T17:29:37;99533.00;;;12.80
11424;BMP180;5768;51.476;7.210;2023-04-24T17:34:41;99535.00;;;12.90
11424;BMP180;5768;51.476;7.210;2023-04-24T17:39:43;99536.00;;;13.20
11424;BMP180;5768;51.476;7.210;2023-04-24T17:44:45;99526.00;;;13.30
11424;BMP180;5768;51.476;7.210;2023-04-24T17:49:49;99537.00;;;13.20
11424;BMP180;5768;51.476;7.210;2023-04-24T17:54:52;99530.00;;;13.80
11424;BMP180;5768;51.476;7.210;2023-04-24T17:59:54;99546.00;;;14.50
11424;BMP180;5768;51.476;7.210;2023-04-24T18:04:58;99546.00;;;15.00
11424;BMP180;5768;51.476;7.210;2023-04-24T18:10:00;99547.00;;;15.10
11424;BMP180;5768;51.476;7.210;2023-04-24T18:15:04;99552.00;;;14.30
11424;BMP180;5768;51.476;7.210;2023-04-24T18:20:09;99550.00;;;13.70
11424;BMP180;5768;51.476;7.210;2023-04-24T18:25:13;99567.00;;;13.30
11424;BMP180;5768;51.476;7.210;2023-04-24T18:30:15;99565.00;;;13.10
11424;BMP180;5768;51.476;7.210;2023-04-24T18:35:19;99573.00;;;13.00
11424;BMP180;5768;51.476;7.210;2023-04-24T18:40:21;99567.00;;;12.90
11424;BMP180;5768;51.476;7.210;2023-04-24T18:45:24;99584.00;;;12.70
11424;BMP180;5768;51.476;7.210;2023-04-24T18:50:31;99578.00;;;12.50
11424;BMP180;5768;51.476;7.210;2023-04-24T18:55:34;99583.00;;;12.40
11424;BMP180;5768;51.476;7.210;2023-04-24T19:00:36;99588.00;;;12.20
11424;BMP180;5768;51.476;7.210;2023-04-24T19:05:40;99585.00;;;12.10
11424;BMP180;5768;51.476;7.210;2023-04-24T19:10:42;99597.00;;;12.00
11424;BMP180;5768;51.476;7.210;2023-04-24T19:15:44;99603.00;;;11.90
11424;BMP180;5768;51.476;7.210;2023-04-24T19:20:48;99608.00;;;11.80
11424;BMP180;5768;51.476;7.210;2023-04-24T19:25:50;99602.00;;;11.70
11424;BMP180;5768;51.476;7.210;2023-04-24T19:30:53;99609.00;;;11.70
11424;BMP180;5768;51.476;7.210;2023-04-24T19:35:59;99600.00;;;11.60
11424;BMP180;5768;51.476;7.210;2023-04-24T19:41:02;99604.00;;;11.50
11424;BMP180;5768;51.476;7.210;2023-04-24T19:46:05;99605.00;;;11.40
11424;BMP180;5768;51.476;7.210;2023-04-24T19:51:08;99610.00;;;11.50
11424;BMP180;5768;51.476;7.210;2023-04-24T19:56:10;99613.00;;;11.70
11424;BMP180;5768;51.476;7.210;2023-04-24T20:01:12;99606.00;;;11.80
11424;BMP180;5768;51.476;7.210;2023-04-24T20:06:16;99592.00;;;11.80
11424;BMP180;5768;51.476;7.210;2023-04-24T20:11:18;99608.00;;;11.60
11424;BMP180;5768;51.476;7.210;2023-04-24T20:16:21;99605.00;;;11.60
11424;BMP180;5768;51.476;7.210;2023-04-24T20:21:25;99600.00;;;11.70
11424;BMP180;5768;51.476;7.210;2023-04-24T20:26:28;99607.00;;;11.60
11424;BMP180;5768;51.476;7.210;2023-04-24T20:31:30;99606.00;;;11.40
11424;BMP180;5768;51.476;7.210;2023-04-24T20:36:34;99613.00;;;11.30
11424;BMP180;5768;51.476;7.210;2023-04-24T20:41:37;99609.00;;;11.20
11424;BMP180;5768;51.476;7.210;2023-04-24T20:46:39;99612.00;;;11.10
11424;BMP180;5768;51.476;7.210;2023-04-24T20:51:43;99624.00;;;11.20
11424;BMP180;5768;51.476;7.210;2023-04-24T20:56:45;99627.00;;;11.30
11424;BMP180;5768;51.476;7.210;2023-04-24T21:01:48;99626.00;;;11.30
11424;BMP180;5768;51.476;7.210;2023-04-24T21:06:52;99618.00;;;11.40
11424;BMP180;5768;51.476;7.210;2023-04-24T21:11:54;99626.00;;;11.30
11424;BMP180;5768;51.476;7.210;2023-04-24T21:16:57;99619.00;;;11.00
11424;BMP180;5768;51.476;7.210;2023-04-24T21:22:02;99616.00;;;10.80
11424;BMP180;5768;51.476;7.210;2023-04-24T21:27:04;99612.00;;;10.70
11424;BMP180;5768;51.476;7.210;2023-04-24T21:32:07;99616.00;;;10.60
11424;BMP180;5768;51.476;7.210;2023-04-24T21:37:11;99611.00;;;10.50
11424;BMP180;5768;51.476;7.210;2023-04-24T21:42:15;99619.00;;;10.50
11424;BMP180;5768;51.476;7.210;2023-04-24T21:47:17;99622.00;;;10.60
11424;BMP180;5768;51.476;7.210;2023-04-24T21:52:21;99619.00;;;10.60
11424;BMP180;5768;51.476;7.210;2023-04-24T21:57:23;99616.00;;;10.70
11424;BMP180;5768;51.476;7.210;2023-04-24T22:02:25;99605.00;;;10.50
11424;BMP180;5768;51.476;7.210;2023-04-24T22:07:32;99605.00;;;10.30
11424;BMP180;5768;51.476;7.210;2023-04-24T22:12:36;99607.00;;;10.20
11424;BMP180;5768;51.476;7.210;2023-04-24T22:17:38;99607.00;;;10.10
11424;BMP180;5768;51.476;7.210;2023-04-24T22:22:42;99605.00;;;10.00
11424;BMP180;5768;51.476;7.210;2023-04-24T22:27:45;99624.00;;;10.00
11424;BMP180;5768;51.476;7.210;2023-04-24T22:32:47;99621.00;;;10.10
11424;BMP180;5768;51.476;7.210;2023-04-24T22:37:55;99607.00;;;10.10
11424;BMP180;5768;51.476;7.210;2023-04-24T22:42:57;99614.00;;;10.00
11424;BMP180;5768;51.476;7.210;2023-04-24T22:48:00;99611.00;;;10.10
11424;BMP180;5768;51.476;7.210;2023-04-24T22:53:04;99618.00;;;10.10
11424;BMP180;5768;51.476;7.210;2023-04-24T22:58:06;99611.00;;;10.10
11424;BMP180;5768;51.476;7.210;2023-04-24T23:03:08;99599.00;;;10.20
11424;BMP180;5768;51.476;7.210;2023-04-24T23:08:12;99604.00;;;10.20
11424;BMP180;5768;51.476;7.210;2023-04-24T23:13:14;99606.00;;;10.20
11424;BMP180;5768;51.476;7.210;2023-04-24T23:18:17;99596.00;;;10.20
11424;BMP180;5768;51.476;7.210;2023-04-24T23:23:23;99587.00;;;10.10
11424;BMP180;5768;51.476;7.210;2023-04-24T23:28:28;99592.00;;;9.90
11424;BMP180;5768;51.476;7.210;2023-04-24T23:33:31;99605.00;;;9.90
11424;BMP180;5768;51.476;7.210;2023-04-24T23:38:34;99594.00;;;9.80
11424;BMP180;5768;51.476;7.210;2023-04-24T23:43:37;99593.00;;;9.80
11424;BMP180;5768;51.476;7.210;2023-04-24T23:48:39;99594.00;;;10.00
11424;BMP180;5768;51.476;7.210;2023-04-24T23:53:43;99593.00;;;10.10
11424;BMP180;5768;51.476;7.210;2023-04-24T23:58:45;99593.00;;;10.10
